Omaha — WDC9423 — position and weather

sailwx.info

Track history (hours):
 
Tides and Currents Weather Stations Pressure Air Temp Water Temp Dewpoint Dewpoint Depression Visibility Wind Speed Wind Dir Waves Ship Positions

Omaha

Owner: Turn services, Inc, New Orleans, LA. More information available from US FCC via Universal Licensing System and Coast Guard Vessel Documentation Center.

Last reported at 2014-Oct-31 09:31 UTC. Time now 2014-Oct-31 12:11 UTC.
Position N 29°55' W 089°57'.

Length 13 m; draft 3.5 m.

Type: Pilot. MMSI: 367102030.

Date/timePositionNaut miles runAvg speedWind from/ knotsBaromVisibWave heightAir tempDewpointWater temp
2014-Oct-31 09:31N 29°55' W 089°57'0 0.0
2014-Oct-31 07:31N 29°55' W 089°57'1 0.7
2014-Oct-31 06:24N 29°55' W 089°56'1 1.0
2014-Oct-31 05:23N 29°55' W 089°57'2 1.1
2014-Oct-31 03:27N 29°56' W 089°59'1 0.8
2014-Oct-31 02:33N 29°56' W 089°60'3 2.1
2014-Oct-31 01:09N 29°55' W 089°56'1 0.0
2014-Oct-30 10:09N 29°55' W 089°56'1 0.1
2014-Oct-30 03:29N 29°55' W 089°57'1 0.1
2014-Oct-29 04:07N 29°55' W 089°58'1 0.4
2014-Oct-29 00:30N 29°55' W 089°57'2 0.9
2014-Oct-28 22:10N 29°56' W 089°59'2 0.9
2014-Oct-28 20:14N 29°55' W 089°57'0 0.1
2014-Oct-28 15:19N 29°55' W 089°57'2 0.3
2014-Oct-28 08:24N 29°56' W 089°60'3 0.8
2014-Oct-28 04:29N 29°55' W 089°57'0 0.3
2014-Oct-28 03:14N 29°55' W 089°56'0 0.6
2014-Oct-28 02:28N 29°55' W 089°57'3 3.1
2014-Oct-28 01:32N 29°57' W 089°60'3 2.5
2014-Oct-28 00:18N 29°55' W 089°57'0 0.1
2014-Oct-27 21:29N 29°55' W 089°56'1 0.2
2014-Oct-27 14:33N 29°56' W 089°58'1 1.0
2014-Oct-27 13:29N 29°55' W 089°57'1 0.7
2014-Oct-27 12:25N 29°55' W 089°56'0 0.0
2014-Oct-27 10:13N 29°55' W 089°56'0 0.0
2014-Oct-27 09:34N 29°55' W 089°56'0 0.1
2014-Oct-27 06:32N 29°55' W 089°56'0 0.0
2014-Oct-27 05:22N 29°55' W 089°56'0 0.0
2014-Oct-27 04:33N 29°55' W 089°56'0 0.0
2014-Oct-27 03:33N 29°55' W 089°56'1 1.2
2014-Oct-27 02:21N 29°55' W 089°58'1 0.3
2014-Oct-27 00:24N 29°55' W 089°57'2 0.2
2014-Oct-26 13:15N 29°56' W 089°59'1 0.1
2014-Oct-26 04:32N 29°55' W 089°58'2 0.5
2014-Oct-26 01:32N 29°55' W 089°56'0 0.2
2014-Oct-25 23:19N 29°55' W 089°56'0 0.0
2014-Oct-25 22:32N 29°55' W 089°56'0 0.0
2014-Oct-24 19:20N 29°55' W 089°56'0 0.0
2014-Oct-24 13:05N 29°55' W 089°56'2 0.6
2014-Oct-24 09:20N 29°56' W 089°59'3 0.4
2014-Oct-24 02:29N 29°55' W 089°55'2 0.1
2014-Oct-23 05:11N 29°55' W 089°58'1 0.7
2014-Oct-23 03:13N 29°55' W 089°56'  
Track history (hours):
 
Tides and Currents Weather Stations Pressure Air Temp Water Temp Dewpoint Dewpoint Depression Visibility Wind Speed Wind Dir Waves Ship Positions

Omaha

Owner: Turn services, Inc, New Orleans, LA. More information available from US FCC via Universal Licensing System and Coast Guard Vessel Documentation Center.

Last reported at 2014-Oct-31 09:31 UTC. Time now 2014-Oct-31 12:11 UTC.
Position N 29°55' W 089°57'.

Length 13 m; draft 3.5 m.

Type: Pilot. MMSI: 367102030.

Date/timePositionNaut miles runAvg speedWind from/ knotsBaromVisibWave heightAir tempDewpointWater temp
2014-Oct-31 09:31N 29°55' W 089°57'0 0.0
2014-Oct-31 07:31N 29°55' W 089°57'1 0.7
2014-Oct-31 06:24N 29°55' W 089°56'1 1.0
2014-Oct-31 05:23N 29°55' W 089°57'2 1.1
2014-Oct-31 03:27N 29°56' W 089°59'1 0.8
2014-Oct-31 02:33N 29°56' W 089°60'3 2.1
2014-Oct-31 01:09N 29°55' W 089°56'1 0.0
2014-Oct-30 10:09N 29°55' W 089°56'1 0.1
2014-Oct-30 03:29N 29°55' W 089°57'1 0.1
2014-Oct-29 04:07N 29°55' W 089°58'1 0.4
2014-Oct-29 00:30N 29°55' W 089°57'2 0.9
2014-Oct-28 22:10N 29°56' W 089°59'2 0.9
2014-Oct-28 20:14N 29°55' W 089°57'0 0.1
2014-Oct-28 15:19N 29°55' W 089°57'2 0.3
2014-Oct-28 08:24N 29°56' W 089°60'3 0.8
2014-Oct-28 04:29N 29°55' W 089°57'0 0.3
2014-Oct-28 03:14N 29°55' W 089°56'0 0.6
2014-Oct-28 02:28N 29°55' W 089°57'3 3.1
2014-Oct-28 01:32N 29°57' W 089°60'3 2.5
2014-Oct-28 00:18N 29°55' W 089°57'0 0.1
2014-Oct-27 21:29N 29°55' W 089°56'1 0.2
2014-Oct-27 14:33N 29°56' W 089°58'1 1.0
2014-Oct-27 13:29N 29°55' W 089°57'1 0.7
2014-Oct-27 12:25N 29°55' W 089°56'0 0.0
2014-Oct-27 10:13N 29°55' W 089°56'0 0.0
2014-Oct-27 09:34N 29°55' W 089°56'0 0.1
2014-Oct-27 06:32N 29°55' W 089°56'0 0.0
2014-Oct-27 05:22N 29°55' W 089°56'0 0.0
2014-Oct-27 04:33N 29°55' W 089°56'0 0.0
2014-Oct-27 03:33N 29°55' W 089°56'1 1.2
2014-Oct-27 02:21N 29°55' W 089°58'1 0.3
2014-Oct-27 00:24N 29°55' W 089°57'2 0.2
2014-Oct-26 13:15N 29°56' W 089°59'1 0.1
2014-Oct-26 04:32N 29°55' W 089°58'2 0.5
2014-Oct-26 01:32N 29°55' W 089°56'0 0.2
2014-Oct-25 23:19N 29°55' W 089°56'0 0.0
2014-Oct-25 22:32N 29°55' W 089°56'0 0.0
2014-Oct-24 19:20N 29°55' W 089°56'0 0.0
2014-Oct-24 13:05N 29°55' W 089°56'2 0.6
2014-Oct-24 09:20N 29°56' W 089°59'3 0.4
2014-Oct-24 02:29N 29°55' W 089°55'2 0.1
2014-Oct-23 05:11N 29°55' W 089°58'1 0.7
2014-Oct-23 03:13N 29°55' W 089°56'  

Dump ship's entire track history